sensor_id;sensor_type;location;lat;lon;timestamp;temperature;humidity
73438;DHT22;66471;56.532;21.020;2024-02-26T09:27:19;8.20;99.90
73438;DHT22;66471;56.532;21.020;2024-02-26T09:29:47;8.60;99.90
73438;DHT22;66471;56.532;21.020;2024-02-26T09:32:14;8.50;99.90
73438;DHT22;66471;56.532;21.020;2024-02-26T09:34:42;8.50;99.90
73438;DHT22;66471;56.532;21.020;2024-02-26T09:37:10;8.10;99.90
73438;DHT22;66471;56.532;21.020;2024-02-26T09:39:48;8.20;99.90
73438;DHT22;66471;56.532;21.020;2024-02-26T09:42:18;8.10;99.90
73438;DHT22;66471;56.532;21.020;2024-02-26T09:44:51;8.00;99.90
73438;DHT22;66471;56.532;21.020;2024-02-26T09:47:21;7.80;99.90
73438;DHT22;66471;56.532;21.020;2024-02-26T09:49:50;7.80;99.90
73438;DHT22;66471;56.532;21.020;2024-02-26T09:52:21;7.70;99.90
73438;DHT22;66471;56.532;21.020;2024-02-26T09:54:50;7.80;99.90
73438;DHT22;66471;56.532;21.020;2024-02-26T09:57:17;7.90;99.90
73438;DHT22;66471;56.532;21.020;2024-02-26T09:59:46;7.90;99.90
73438;DHT22;66471;56.532;21.020;2024-02-26T10:02:15;7.80;99.90
73438;DHT22;66471;56.532;21.020;2024-02-26T10:04:43;7.70;99.90
73438;DHT22;66471;56.532;21.020;2024-02-26T10:07:16;8.00;99.90
73438;DHT22;66471;56.532;21.020;2024-02-26T10:09:44;7.70;99.90
73438;DHT22;66471;56.532;21.020;2024-02-26T10:12:12;7.70;99.90
73438;DHT22;66471;56.532;21.020;2024-02-26T10:14:41;7.80;99.90
73438;DHT22;66471;56.532;21.020;2024-02-26T10:17:09;7.90;99.90
73438;DHT22;66471;56.532;21.020;2024-02-26T10:19:36;7.90;99.90
73438;DHT22;66471;56.532;21.020;2024-02-26T10:22:05;7.90;99.90
73438;DHT22;66471;56.532;21.020;2024-02-26T10:24:32;8.10;99.90
73438;DHT22;66471;56.532;21.020;2024-02-26T10:27:02;8.10;99.90
73438;DHT22;66471;56.532;21.020;2024-02-26T10:29:31;8.10;99.90
73438;DHT22;66471;56.532;21.020;2024-02-26T10:31:58;8.00;99.90
73438;DHT22;66471;56.532;21.020;2024-02-26T10:34:26;8.00;99.90
73438;DHT22;66471;56.532;21.020;2024-02-26T10:36:55;7.90;99.90
73438;DHT22;66471;56.532;21.020;2024-02-26T10:39:23;7.80;99.90
73438;DHT22;66471;56.532;21.020;2024-02-26T10:41:52;7.80;99.90
73438;DHT22;66471;56.532;21.020;2024-02-26T10:44:20;7.50;99.90
73438;DHT22;66471;56.532;21.020;2024-02-26T10:46:48;7.70;99.90
73438;DHT22;66471;56.532;21.020;2024-02-26T10:49:18;7.60;99.90
73438;DHT22;66471;56.532;21.020;2024-02-26T10:51:59;7.70;99.90
73438;DHT22;66471;56.532;21.020;2024-02-26T10:54:32;7.60;99.90
73438;DHT22;66471;56.532;21.020;2024-02-26T10:57:02;7.50;99.90
73438;DHT22;66471;56.532;21.020;2024-02-26T10:59:32;7.60;99.90
73438;DHT22;66471;56.532;21.020;2024-02-26T11:02:00;7.40;99.90
73438;DHT22;66471;56.532;21.020;2024-02-26T11:04:29;7.20;99.90
73438;DHT22;66471;56.532;21.020;2024-02-26T11:06:57;7.40;99.90
73438;DHT22;66471;56.532;21.020;2024-02-26T11:09:28;7.40;99.90
73438;DHT22;66471;56.532;21.020;2024-02-26T11:11:57;7.40;99.90
73438;DHT22;66471;56.532;21.020;2024-02-26T11:14:28;7.40;99.90
73438;DHT22;66471;56.532;21.020;2024-02-26T11:16:57;7.30;99.90
73438;DHT22;66471;56.532;21.020;2024-02-26T11:19:24;7.40;99.90
73438;DHT22;66471;56.532;21.020;2024-02-26T11:21:54;7.40;99.90
73438;DHT22;66471;56.532;21.020;2024-02-26T11:24:21;7.30;99.90
73438;DHT22;66471;56.532;21.020;2024-02-26T11:26:51;7.50;99.90
73438;DHT22;66471;56.532;21.020;2024-02-26T11:29:44;7.60;99.90
73438;DHT22;66471;56.532;21.020;2024-02-26T11:32:14;7.70;99.90
73438;DHT22;66471;56.532;21.020;2024-02-26T11:34:43;7.50;99.90
73438;DHT22;66471;56.532;21.020;2024-02-26T11:37:16;7.50;99.90
73438;DHT22;66471;56.532;21.020;2024-02-26T11:39:48;7.30;99.90
73438;DHT22;66471;56.532;21.020;2024-02-26T11:42:17;7.40;99.90
73438;DHT22;66471;56.532;21.020;2024-02-26T11:44:49;7.20;99.90
73438;DHT22;66471;56.532;21.020;2024-02-26T11:47:21;7.00;99.90
73438;DHT22;66471;56.532;21.020;2024-02-26T11:49:49;6.90;99.90
73438;DHT22;66471;56.532;21.020;2024-02-26T11:52:17;6.80;99.90
73438;DHT22;66471;56.532;21.020;2024-02-26T11:54:50;6.60;99.90
73438;DHT22;66471;56.532;21.020;2024-02-26T11:57:39;6.70;99.90
73438;DHT22;66471;56.532;21.020;2024-02-26T12:00:14;6.70;99.90
73438;DHT22;66471;56.532;21.020;2024-02-26T12:02:50;6.80;99.90
73438;DHT22;66471;56.532;21.020;2024-02-26T12:05:25;7.00;99.90
73438;DHT22;66471;56.532;21.020;2024-02-26T12:08:02;7.10;99.90
73438;DHT22;66471;56.532;21.020;2024-02-26T12:10:36;7.00;99.90
73438;DHT22;66471;56.532;21.020;2024-02-26T12:13:14;6.90;99.90
73438;DHT22;66471;56.532;21.020;2024-02-26T12:15:55;6.90;99.90
73438;DHT22;66471;56.532;21.020;2024-02-26T12:18:23;6.80;99.90
73438;DHT22;66471;56.532;21.020;2024-02-26T12:21:01;6.60;99.90
73438;DHT22;66471;56.532;21.020;2024-02-26T12:23:30;6.70;99.90
73438;DHT22;66471;56.532;21.020;2024-02-26T12:26:01;6.70;99.90
73438;DHT22;66471;56.532;21.020;2024-02-26T12:28:34;6.70;99.90
73438;DHT22;66471;56.532;21.020;2024-02-26T12:31:01;6.70;99.90
73438;DHT22;66471;56.532;21.020;2024-02-26T12:33:29;6.80;99.90
73438;DHT22;66471;56.532;21.020;2024-02-26T12:35:57;6.90;99.90
73438;DHT22;66471;56.532;21.020;2024-02-26T12:38:27;6.80;99.90
73438;DHT22;66471;56.532;21.020;2024-02-26T12:40:58;7.00;99.90
73438;DHT22;66471;56.532;21.020;2024-02-26T12:43:30;6.90;99.90
73438;DHT22;66471;56.532;21.020;2024-02-26T12:46:02;7.10;99.90
73438;DHT22;66471;56.532;21.020;2024-02-26T12:48:31;6.90;99.90
73438;DHT22;66471;56.532;21.020;2024-02-26T12:50:59;6.90;99.90
73438;DHT22;66471;56.532;21.020;2024-02-26T12:53:27;6.70;99.90
73438;DHT22;66471;56.532;21.020;2024-02-26T12:55:55;6.60;99.90
73438;DHT22;66471;56.532;21.020;2024-02-26T12:58:24;6.60;99.90
73438;DHT22;66471;56.532;21.020;2024-02-26T13:00:53;6.80;99.90
73438;DHT22;66471;56.532;21.020;2024-02-26T13:03:24;6.70;99.90
73438;DHT22;66471;56.532;21.020;2024-02-26T13:05:52;6.80;99.90
73438;DHT22;66471;56.532;21.020;2024-02-26T13:08:22;6.90;99.90
73438;DHT22;66471;56.532;21.020;2024-02-26T13:10:52;6.80;99.90
73438;DHT22;66471;56.532;21.020;2024-02-26T13:13:24;7.00;99.90
73438;DHT22;66471;56.532;21.020;2024-02-26T13:16:02;7.10;99.90
73438;DHT22;66471;56.532;21.020;2024-02-26T13:18:36;7.00;99.90
73438;DHT22;66471;56.532;21.020;2024-02-26T13:21:12;6.90;99.90
73438;DHT22;66471;56.532;21.020;2024-02-26T13:23:57;6.80;99.90
73438;DHT22;66471;56.532;21.020;2024-02-26T13:26:30;6.70;99.90
73438;DHT22;66471;56.532;21.020;2024-02-26T13:29:03;6.70;99.90
73438;DHT22;66471;56.532;21.020;2024-02-26T13:31:32;6.60;99.90
73438;DHT22;66471;56.532;21.020;2024-02-26T13:34:11;6.90;99.90
73438;DHT22;66471;56.532;21.020;2024-02-26T13:36:40;6.80;99.90
73438;DHT22;66471;56.532;21.020;2024-02-26T13:39:09;6.60;99.90
73438;DHT22;66471;56.532;21.020;2024-02-26T13:41:40;6.90;99.90
73438;DHT22;66471;56.532;21.020;2024-02-26T13:44:21;6.90;99.90
73438;DHT22;66471;56.532;21.020;2024-02-26T13:46:51;7.10;99.90
73438;DHT22;66471;56.532;21.020;2024-02-26T13:49:19;7.10;99.90
73438;DHT22;66471;56.532;21.020;2024-02-26T13:51:47;7.10;99.90
73438;DHT22;66471;56.532;21.020;2024-02-26T13:54:17;7.10;99.90
73438;DHT22;66471;56.532;21.020;2024-02-26T13:56:48;7.10;99.90
73438;DHT22;66471;56.532;21.020;2024-02-26T13:59:16;7.20;99.90
73438;DHT22;66471;56.532;21.020;2024-02-26T14:01:44;7.20;99.90
73438;DHT22;66471;56.532;21.020;2024-02-26T14:04:12;7.10;99.90
73438;DHT22;66471;56.532;21.020;2024-02-26T14:06:40;7.20;99.90
73438;DHT22;66471;56.532;21.020;2024-02-26T14:09:09;7.00;99.90
73438;DHT22;66471;56.532;21.020;2024-02-26T14:11:37;6.90;99.90
73438;DHT22;66471;56.532;21.020;2024-02-26T14:14:07;7.00;99.90
73438;DHT22;66471;56.532;21.020;2024-02-26T14:16:36;6.80;99.90
73438;DHT22;66471;56.532;21.020;2024-02-26T14:19:04;6.70;99.90
73438;DHT22;66471;56.532;21.020;2024-02-26T14:21:32;6.90;99.90
73438;DHT22;66471;56.532;21.020;2024-02-26T14:24:00;6.70;99.90
73438;DHT22;66471;56.532;21.020;2024-02-26T14:26:28;6.80;99.90
73438;DHT22;66471;56.532;21.020;2024-02-26T14:28:56;6.70;99.90
73438;DHT22;66471;56.532;21.020;2024-02-26T14:31:25;6.70;99.90
73438;DHT22;66471;56.532;21.020;2024-02-26T14:33:53;6.70;99.90
73438;DHT22;66471;56.532;21.020;2024-02-26T14:36:22;6.60;99.90
73438;DHT22;66471;56.532;21.020;2024-02-26T14:38:52;6.70;99.90
73438;DHT22;66471;56.532;21.020;2024-02-26T14:41:20;6.70;99.90
73438;DHT22;66471;56.532;21.020;2024-02-26T14:43:56;6.80;99.90
73438;DHT22;66471;56.532;21.020;2024-02-26T14:46:24;6.90;99.90
73438;DHT22;66471;56.532;21.020;2024-02-26T14:48:55;6.80;99.90
73438;DHT22;66471;56.532;21.020;2024-02-26T14:51:24;6.60;99.90
73438;DHT22;66471;56.532;21.020;2024-02-26T14:53:54;6.70;99.90
73438;DHT22;66471;56.532;21.020;2024-02-26T14:56:22;6.50;99.90
73438;DHT22;66471;56.532;21.020;2024-02-26T14:58:50;6.60;99.90
73438;DHT22;66471;56.532;21.020;2024-02-26T15:01:30;6.60;99.90
73438;DHT22;66471;56.532;21.020;2024-02-26T15:04:04;6.40;99.90
73438;DHT22;66471;56.532;21.020;2024-02-26T15:07:03;6.40;99.90
73438;DHT22;66471;56.532;21.020;2024-02-26T15:09:46;6.50;99.90
73438;DHT22;66471;56.532;21.020;2024-02-26T15:12:29;6.60;99.90
73438;DHT22;66471;56.532;21.020;2024-02-26T15:15:07;6.40;99.90
73438;DHT22;66471;56.532;21.020;2024-02-26T15:17:48;6.70;99.90
73438;DHT22;66471;56.532;21.020;2024-02-26T15:20:34;6.40;99.90
73438;DHT22;66471;56.532;21.020;2024-02-26T15:23:32;6.60;99.90
73438;DHT22;66471;56.532;21.020;2024-02-26T15:26:03;6.50;99.90
73438;DHT22;66471;56.532;21.020;2024-02-26T15:28:42;6.60;99.90
73438;DHT22;66471;56.532;21.020;2024-02-26T15:31:38;6.50;99.90
73438;DHT22;66471;56.532;21.020;2024-02-26T15:34:13;6.60;99.90
73438;DHT22;66471;56.532;21.020;2024-02-26T15:37:25;6.40;99.90
73438;DHT22;66471;56.532;21.020;2024-02-26T15:39:47;6.40;99.90
73438;DHT22;66471;56.532;21.020;2024-02-26T15:42:21;6.50;99.90
73438;DHT22;66471;56.532;21.020;2024-02-26T15:45:18;6.40;99.90
73438;DHT22;66471;56.532;21.020;2024-02-26T15:47:56;6.30;99.90
73438;DHT22;66471;56.532;21.020;2024-02-26T15:50:30;6.40;99.90
73438;DHT22;66471;56.532;21.020;2024-02-26T15:53:11;6.50;99.90
73438;DHT22;66471;56.532;21.020;2024-02-26T15:55:43;6.30;99.90
73438;DHT22;66471;56.532;21.020;2024-02-26T15:58:20;6.30;99.90
73438;DHT22;66471;56.532;21.020;2024-02-26T16:00:52;6.30;99.90
73438;DHT22;66471;56.532;21.020;2024-02-26T16:03:28;6.40;99.90
73438;DHT22;66471;56.532;21.020;2024-02-26T16:06:20;6.40;99.90
73438;DHT22;66471;56.532;21.020;2024-02-26T16:08:51;6.10;99.90
73438;DHT22;66471;56.532;21.020;2024-02-26T16:11:41;6.30;99.90
73438;DHT22;66471;56.532;21.020;2024-02-26T16:17:37;6.30;99.90
73438;DHT22;66471;56.532;21.020;2024-02-26T16:20:20;6.30;99.90
73438;DHT22;66471;56.532;21.020;2024-02-26T16:23:01;6.30;99.90
73438;DHT22;66471;56.532;21.020;2024-02-26T16:25:39;6.20;99.90
73438;DHT22;66471;56.532;21.020;2024-02-26T16:28:29;6.20;99.90
73438;DHT22;66471;56.532;21.020;2024-02-26T16:31:06;6.40;99.90
73438;DHT22;66471;56.532;21.020;2024-02-26T16:33:43;6.30;99.90
73438;DHT22;66471;56.532;21.020;2024-02-26T16:36:12;6.20;99.90
73438;DHT22;66471;56.532;21.020;2024-02-26T16:38:47;6.10;99.90
73438;DHT22;66471;56.532;21.020;2024-02-26T16:41:27;5.90;99.90
73438;DHT22;66471;56.532;21.020;2024-02-26T16:44:00;6.00;99.90
73438;DHT22;66471;56.532;21.020;2024-02-26T16:46:28;6.10;99.90
73438;DHT22;66471;56.532;21.020;2024-02-26T16:49:00;6.10;99.90
73438;DHT22;66471;56.532;21.020;2024-02-26T16:51:38;6.00;99.90
73438;DHT22;66471;56.532;21.020;2024-02-26T16:54:08;6.10;99.90
73438;DHT22;66471;56.532;21.020;2024-02-26T16:56:46;5.80;99.90
73438;DHT22;66471;56.532;21.020;2024-02-26T16:59:18;5.80;99.90
73438;DHT22;66471;56.532;21.020;2024-02-26T17:01:50;5.80;99.90
73438;DHT22;66471;56.532;21.020;2024-02-26T17:04:18;5.80;99.90
73438;DHT22;66471;56.532;21.020;2024-02-26T17:07:03;5.80;99.90
73438;DHT22;66471;56.532;21.020;2024-02-26T17:09:45;5.60;99.90
73438;DHT22;66471;56.532;21.020;2024-02-26T17:12:27;5.80;99.90
73438;DHT22;66471;56.532;21.020;2024-02-26T17:14:55;5.70;99.90
73438;DHT22;66471;56.532;21.020;2024-02-26T17:17:31;5.80;99.90
73438;DHT22;66471;56.532;21.020;2024-02-26T17:19:59;5.80;99.90
73438;DHT22;66471;56.532;21.020;2024-02-26T17:22:31;5.80;99.90
73438;DHT22;66471;56.532;21.020;2024-02-26T17:25:04;5.70;99.90
73438;DHT22;66471;56.532;21.020;2024-02-26T17:27:42;5.60;99.90
73438;DHT22;66471;56.532;21.020;2024-02-26T17:30:11;5.50;99.90
73438;DHT22;66471;56.532;21.020;2024-02-26T17:32:42;5.60;99.90
73438;DHT22;66471;56.532;21.020;2024-02-26T17:35:11;5.50;99.90
73438;DHT22;66471;56.532;21.020;2024-02-26T17:37:43;5.60;99.90
73438;DHT22;66471;56.532;21.020;2024-02-26T17:40:15;5.40;99.90
73438;DHT22;66471;56.532;21.020;2024-02-26T17:42:58;5.40;99.90
73438;DHT22;66471;56.532;21.020;2024-02-26T17:45:27;5.50;99.90
73438;DHT22;66471;56.532;21.020;2024-02-26T17:48:01;5.50;99.90
73438;DHT22;66471;56.532;21.020;2024-02-26T17:50:30;5.40;99.90
73438;DHT22;66471;56.532;21.020;2024-02-26T17:52:59;5.40;99.90
73438;DHT22;66471;56.532;21.020;2024-02-26T17:55:27;5.30;99.90
73438;DHT22;66471;56.532;21.020;2024-02-26T17:57:58;5.20;99.90
73438;DHT22;66471;56.532;21.020;2024-02-26T18:00:28;5.40;99.90
73438;DHT22;66471;56.532;21.020;2024-02-26T18:02:59;5.40;99.90
73438;DHT22;66471;56.532;21.020;2024-02-26T18:05:28;5.50;99.90
73438;DHT22;66471;56.532;21.020;2024-02-26T18:07:57;5.50;99.90
73438;DHT22;66471;56.532;21.020;2024-02-26T18:10:27;5.50;99.90
73438;DHT22;66471;56.532;21.020;2024-02-26T18:13:02;5.30;99.90
73438;DHT22;66471;56.532;21.020;2024-02-26T18:16:02;5.40;99.90
73438;DHT22;66471;56.532;21.020;2024-02-26T18:18:37;5.40;99.90
73438;DHT22;66471;56.532;21.020;2024-02-26T18:21:09;5.30;99.90
73438;DHT22;66471;56.532;21.020;2024-02-26T18:23:55;5.40;99.90
73438;DHT22;66471;56.532;21.020;2024-02-26T18:26:30;5.30;99.90
73438;DHT22;66471;56.532;21.020;2024-02-26T18:29:03;5.30;99.90
